sensor_id;sensor_type;location;lat;lon;timestamp;P1;durP1;ratioP1;P2;durP2;ratioP2
48859;SDS011;34679;51.436;-2.518;2023-11-19T00:02:21;38.85;;;6.82;;
48859;SDS011;34679;51.436;-2.518;2023-11-19T00:04:47;56.47;;;8.20;;
48859;SDS011;34679;51.436;-2.518;2023-11-19T00:07:13;44.20;;;6.82;;
48859;SDS011;34679;51.436;-2.518;2023-11-19T00:09:39;49.20;;;7.85;;
48859;SDS011;34679;51.436;-2.518;2023-11-19T00:12:05;47.95;;;5.88;;
48859;SDS011;34679;51.436;-2.518;2023-11-19T00:14:32;54.85;;;6.78;;
48859;SDS011;34679;51.436;-2.518;2023-11-19T00:16:58;60.85;;;8.35;;
48859;SDS011;34679;51.436;-2.518;2023-11-19T00:19:24;50.17;;;8.07;;
48859;SDS011;34679;51.436;-2.518;2023-11-19T00:21:51;48.22;;;6.75;;
48859;SDS011;34679;51.436;-2.518;2023-11-19T00:24:17;49.63;;;6.82;;
48859;SDS011;34679;51.436;-2.518;2023-11-19T00:26:43;51.22;;;7.38;;
48859;SDS011;34679;51.436;-2.518;2023-11-19T00:29:09;36.58;;;7.55;;
48859;SDS011;34679;51.436;-2.518;2023-11-19T00:31:35;39.20;;;5.50;;
48859;SDS011;34679;51.436;-2.518;2023-11-19T00:34:01;43.42;;;7.72;;
48859;SDS011;34679;51.436;-2.518;2023-11-19T00:36:27;55.65;;;8.20;;
48859;SDS011;34679;51.436;-2.518;2023-11-19T00:38:53;56.50;;;8.88;;
48859;SDS011;34679;51.436;-2.518;2023-11-19T00:41:19;40.97;;;7.13;;
48859;SDS011;34679;51.436;-2.518;2023-11-19T00:43:45;48.05;;;7.75;;
48859;SDS011;34679;51.436;-2.518;2023-11-19T00:46:11;47.70;;;6.93;;
48859;SDS011;34679;51.436;-2.518;2023-11-19T00:48:38;44.05;;;7.00;;
48859;SDS011;34679;51.436;-2.518;2023-11-19T00:51:04;49.95;;;7.10;;
48859;SDS011;34679;51.436;-2.518;2023-11-19T00:53:30;48.28;;;6.68;;
48859;SDS011;34679;51.436;-2.518;2023-11-19T00:55:57;48.92;;;6.38;;
48859;SDS011;34679;51.436;-2.518;2023-11-19T00:58:23;48.50;;;7.63;;
48859;SDS011;34679;51.436;-2.518;2023-11-19T01:00:48;41.75;;;7.35;;
48859;SDS011;34679;51.436;-2.518;2023-11-19T01:03:14;51.03;;;7.78;;
48859;SDS011;34679;51.436;-2.518;2023-11-19T01:05:41;43.78;;;7.00;;
48859;SDS011;34679;51.436;-2.518;2023-11-19T01:08:07;43.25;;;7.28;;
48859;SDS011;34679;51.436;-2.518;2023-11-19T01:10:33;48.25;;;6.25;;
48859;SDS011;34679;51.436;-2.518;2023-11-19T01:12:59;41.13;;;5.95;;
48859;SDS011;34679;51.436;-2.518;2023-11-19T01:15:25;29.05;;;5.05;;
48859;SDS011;34679;51.436;-2.518;2023-11-19T01:17:51;40.40;;;6.78;;
48859;SDS011;34679;51.436;-2.518;2023-11-19T01:20:17;50.55;;;6.93;;
48859;SDS011;34679;51.436;-2.518;2023-11-19T01:22:42;39.35;;;5.25;;
48859;SDS011;34679;51.436;-2.518;2023-11-19T01:25:08;48.50;;;7.10;;
48859;SDS011;34679;51.436;-2.518;2023-11-19T01:27:34;49.72;;;7.07;;
48859;SDS011;34679;51.436;-2.518;2023-11-19T01:30:03;46.75;;;7.88;;
48859;SDS011;34679;51.436;-2.518;2023-11-19T01:32:29;43.13;;;6.50;;
48859;SDS011;34679;51.436;-2.518;2023-11-19T01:34:55;51.70;;;6.88;;
48859;SDS011;34679;51.436;-2.518;2023-11-19T01:37:21;57.78;;;7.30;;
48859;SDS011;34679;51.436;-2.518;2023-11-19T01:39:46;43.22;;;7.07;;
48859;SDS011;34679;51.436;-2.518;2023-11-19T01:42:12;43.10;;;6.13;;
48859;SDS011;34679;51.436;-2.518;2023-11-19T01:44:38;41.40;;;5.25;;
48859;SDS011;34679;51.436;-2.518;2023-11-19T01:47:04;52.75;;;6.82;;
48859;SDS011;34679;51.436;-2.518;2023-11-19T01:49:31;47.08;;;7.03;;
48859;SDS011;34679;51.436;-2.518;2023-11-19T01:51:58;48.00;;;7.35;;
48859;SDS011;34679;51.436;-2.518;2023-11-19T01:54:24;34.28;;;4.70;;
48859;SDS011;34679;51.436;-2.518;2023-11-19T01:56:50;39.50;;;6.75;;
48859;SDS011;34679;51.436;-2.518;2023-11-19T01:59:21;55.67;;;6.80;;
48859;SDS011;34679;51.436;-2.518;2023-11-19T02:01:51;43.30;;;6.25;;
48859;SDS011;34679;51.436;-2.518;2023-11-19T02:04:20;48.72;;;5.18;;
48859;SDS011;34679;51.436;-2.518;2023-11-19T02:06:47;41.72;;;6.00;;
48859;SDS011;34679;51.436;-2.518;2023-11-19T02:09:17;49.63;;;5.88;;
48859;SDS011;34679;51.436;-2.518;2023-11-19T02:11:44;47.78;;;5.60;;
48859;SDS011;34679;51.436;-2.518;2023-11-19T02:14:14;36.25;;;5.38;;
48859;SDS011;34679;51.436;-2.518;2023-11-19T02:16:40;48.55;;;7.15;;
48859;SDS011;34679;51.436;-2.518;2023-11-19T02:19:06;53.97;;;7.97;;
48859;SDS011;34679;51.436;-2.518;2023-11-19T02:21:33;42.60;;;6.55;;
48859;SDS011;34679;51.436;-2.518;2023-11-19T02:23:59;55.97;;;5.65;;
48859;SDS011;34679;51.436;-2.518;2023-11-19T02:26:29;46.85;;;6.05;;
48859;SDS011;34679;51.436;-2.518;2023-11-19T02:28:58;43.33;;;6.15;;
48859;SDS011;34679;51.436;-2.518;2023-11-19T02:31:27;37.95;;;5.18;;
48859;SDS011;34679;51.436;-2.518;2023-11-19T02:33:52;38.20;;;5.10;;
48859;SDS011;34679;51.436;-2.518;2023-11-19T02:36:18;33.83;;;5.20;;
48859;SDS011;34679;51.436;-2.518;2023-11-19T02:38:44;41.65;;;5.68;;
48859;SDS011;34679;51.436;-2.518;2023-11-19T02:41:10;36.38;;;5.72;;
48859;SDS011;34679;51.436;-2.518;2023-11-19T02:43:36;45.83;;;6.55;;
48859;SDS011;34679;51.436;-2.518;2023-11-19T02:46:02;33.22;;;5.28;;
48859;SDS011;34679;51.436;-2.518;2023-11-19T02:48:32;41.83;;;5.22;;
48859;SDS011;34679;51.436;-2.518;2023-11-19T02:51:04;38.58;;;4.97;;
48859;SDS011;34679;51.436;-2.518;2023-11-19T02:53:30;48.63;;;6.00;;
48859;SDS011;34679;51.436;-2.518;2023-11-19T02:55:56;33.70;;;4.65;;
48859;SDS011;34679;51.436;-2.518;2023-11-19T02:58:31;39.22;;;6.00;;
48859;SDS011;34679;51.436;-2.518;2023-11-19T03:00:57;38.03;;;5.35;;
48859;SDS011;34679;51.436;-2.518;2023-11-19T03:03:24;41.25;;;5.60;;
48859;SDS011;34679;51.436;-2.518;2023-11-19T03:05:54;32.72;;;5.35;;
48859;SDS011;34679;51.436;-2.518;2023-11-19T03:08:20;38.22;;;6.32;;
48859;SDS011;34679;51.436;-2.518;2023-11-19T03:10:47;35.78;;;6.70;;
48859;SDS011;34679;51.436;-2.518;2023-11-19T03:13:13;35.72;;;4.88;;
48859;SDS011;34679;51.436;-2.518;2023-11-19T03:15:39;36.47;;;6.82;;
48859;SDS011;34679;51.436;-2.518;2023-11-19T03:18:05;37.63;;;5.88;;
48859;SDS011;34679;51.436;-2.518;2023-11-19T03:20:31;35.33;;;5.28;;
48859;SDS011;34679;51.436;-2.518;2023-11-19T03:22:57;35.95;;;5.95;;
48859;SDS011;34679;51.436;-2.518;2023-11-19T03:25:24;48.00;;;7.30;;
48859;SDS011;34679;51.436;-2.518;2023-11-19T03:27:52;34.42;;;5.35;;
48859;SDS011;34679;51.436;-2.518;2023-11-19T03:30:18;35.58;;;6.40;;
48859;SDS011;34679;51.436;-2.518;2023-11-19T03:32:46;39.95;;;5.20;;
48859;SDS011;34679;51.436;-2.518;2023-11-19T03:35:11;41.22;;;7.50;;
48859;SDS011;34679;51.436;-2.518;2023-11-19T03:37:37;37.63;;;5.75;;
48859;SDS011;34679;51.436;-2.518;2023-11-19T03:40:04;41.30;;;5.50;;
48859;SDS011;34679;51.436;-2.518;2023-11-19T03:42:31;49.17;;;6.00;;
48859;SDS011;34679;51.436;-2.518;2023-11-19T03:44:57;37.20;;;6.30;;
48859;SDS011;34679;51.436;-2.518;2023-11-19T03:47:23;44.70;;;5.18;;
48859;SDS011;34679;51.436;-2.518;2023-11-19T03:49:48;33.78;;;4.88;;
48859;SDS011;34679;51.436;-2.518;2023-11-19T03:52:15;37.22;;;5.18;;
48859;SDS011;34679;51.436;-2.518;2023-11-19T03:54:41;43.42;;;7.03;;
48859;SDS011;34679;51.436;-2.518;2023-11-19T03:57:07;52.45;;;7.70;;
48859;SDS011;34679;51.436;-2.518;2023-11-19T03:59:32;48.80;;;6.70;;
48859;SDS011;34679;51.436;-2.518;2023-11-19T04:01:58;27.48;;;4.78;;
48859;SDS011;34679;51.436;-2.518;2023-11-19T04:04:26;37.35;;;5.55;;
48859;SDS011;34679;51.436;-2.518;2023-11-19T04:06:52;38.42;;;5.07;;
48859;SDS011;34679;51.436;-2.518;2023-11-19T04:09:19;34.70;;;4.93;;
48859;SDS011;34679;51.436;-2.518;2023-11-19T04:11:44;33.95;;;4.28;;
48859;SDS011;34679;51.436;-2.518;2023-11-19T04:14:12;33.38;;;4.45;;
48859;SDS011;34679;51.436;-2.518;2023-11-19T04:16:38;29.67;;;6.50;;
48859;SDS011;34679;51.436;-2.518;2023-11-19T04:19:04;42.60;;;5.50;;
48859;SDS011;34679;51.436;-2.518;2023-11-19T04:21:31;30.00;;;4.55;;
48859;SDS011;34679;51.436;-2.518;2023-11-19T04:23:57;36.67;;;5.65;;
48859;SDS011;34679;51.436;-2.518;2023-11-19T04:26:23;36.05;;;4.72;;
48859;SDS011;34679;51.436;-2.518;2023-11-19T04:28:49;30.00;;;4.13;;
48859;SDS011;34679;51.436;-2.518;2023-11-19T04:31:15;28.73;;;4.10;;
48859;SDS011;34679;51.436;-2.518;2023-11-19T04:33:44;32.67;;;5.60;;
48859;SDS011;34679;51.436;-2.518;2023-11-19T04:36:10;23.48;;;3.08;;
48859;SDS011;34679;51.436;-2.518;2023-11-19T04:38:36;26.58;;;4.63;;
48859;SDS011;34679;51.436;-2.518;2023-11-19T04:41:03;30.98;;;3.50;;
48859;SDS011;34679;51.436;-2.518;2023-11-19T04:43:30;30.92;;;4.20;;
48859;SDS011;34679;51.436;-2.518;2023-11-19T04:45:57;31.17;;;4.05;;
48859;SDS011;34679;51.436;-2.518;2023-11-19T04:48:23;25.73;;;4.28;;
48859;SDS011;34679;51.436;-2.518;2023-11-19T04:53:24;33.15;;;3.72;;
48859;SDS011;34679;51.436;-2.518;2023-11-19T04:55:50;43.30;;;5.43;;
48859;SDS011;34679;51.436;-2.518;2023-11-19T04:58:15;46.05;;;5.03;;
48859;SDS011;34679;51.436;-2.518;2023-11-19T05:00:44;29.95;;;4.93;;
48859;SDS011;34679;51.436;-2.518;2023-11-19T05:03:10;30.35;;;4.93;;
48859;SDS011;34679;51.436;-2.518;2023-11-19T05:05:36;29.88;;;4.85;;
48859;SDS011;34679;51.436;-2.518;2023-11-19T05:08:01;48.17;;;4.97;;
48859;SDS011;34679;51.436;-2.518;2023-11-19T05:10:27;41.25;;;5.40;;
48859;SDS011;34679;51.436;-2.518;2023-11-19T05:12:53;38.72;;;4.97;;
48859;SDS011;34679;51.436;-2.518;2023-11-19T05:15:21;35.40;;;4.15;;
48859;SDS011;34679;51.436;-2.518;2023-11-19T05:17:46;48.80;;;5.90;;
48859;SDS011;34679;51.436;-2.518;2023-11-19T05:20:13;31.90;;;5.07;;
48859;SDS011;34679;51.436;-2.518;2023-11-19T05:22:39;42.53;;;4.82;;
48859;SDS011;34679;51.436;-2.518;2023-11-19T05:25:06;36.97;;;5.25;;
48859;SDS011;34679;51.436;-2.518;2023-11-19T05:27:32;45.92;;;5.10;;
48859;SDS011;34679;51.436;-2.518;2023-11-19T05:29:57;37.05;;;5.00;;
48859;SDS011;34679;51.436;-2.518;2023-11-19T05:32:23;43.78;;;4.75;;
48859;SDS011;34679;51.436;-2.518;2023-11-19T05:34:49;38.42;;;5.90;;
48859;SDS011;34679;51.436;-2.518;2023-11-19T05:37:14;44.08;;;5.47;;
48859;SDS011;34679;51.436;-2.518;2023-11-19T05:39:40;28.83;;;5.35;;
48859;SDS011;34679;51.436;-2.518;2023-11-19T05:42:06;39.90;;;5.40;;
48859;SDS011;34679;51.436;-2.518;2023-11-19T05:44:31;41.83;;;5.45;;
48859;SDS011;34679;51.436;-2.518;2023-11-19T05:46:57;36.85;;;5.85;;
48859;SDS011;34679;51.436;-2.518;2023-11-19T05:49:22;42.58;;;7.22;;
48859;SDS011;34679;51.436;-2.518;2023-11-19T05:51:48;43.80;;;6.85;;
48859;SDS011;34679;51.436;-2.518;2023-11-19T05:54:14;36.30;;;4.93;;
48859;SDS011;34679;51.436;-2.518;2023-11-19T05:56:40;37.67;;;6.38;;
48859;SDS011;34679;51.436;-2.518;2023-11-19T05:59:05;38.10;;;5.30;;
48859;SDS011;34679;51.436;-2.518;2023-11-19T06:01:40;33.20;;;4.65;;
48859;SDS011;34679;51.436;-2.518;2023-11-19T06:04:06;33.15;;;5.03;;
48859;SDS011;34679;51.436;-2.518;2023-11-19T06:06:32;31.90;;;4.32;;
48859;SDS011;34679;51.436;-2.518;2023-11-19T06:08:58;46.47;;;5.53;;
48859;SDS011;34679;51.436;-2.518;2023-11-19T06:11:24;39.58;;;5.85;;
48859;SDS011;34679;51.436;-2.518;2023-11-19T06:13:52;47.65;;;6.90;;
48859;SDS011;34679;51.436;-2.518;2023-11-19T06:16:18;46.80;;;5.20;;
48859;SDS011;34679;51.436;-2.518;2023-11-19T06:18:43;36.42;;;4.82;;
48859;SDS011;34679;51.436;-2.518;2023-11-19T06:21:10;30.15;;;4.28;;
48859;SDS011;34679;51.436;-2.518;2023-11-19T06:23:36;37.47;;;4.68;;
48859;SDS011;34679;51.436;-2.518;2023-11-19T06:26:02;30.80;;;4.55;;
48859;SDS011;34679;51.436;-2.518;2023-11-19T06:28:28;34.40;;;6.60;;
48859;SDS011;34679;51.436;-2.518;2023-11-19T06:30:54;41.88;;;6.25;;
48859;SDS011;34679;51.436;-2.518;2023-11-19T06:33:19;27.67;;;5.40;;
48859;SDS011;34679;51.436;-2.518;2023-11-19T06:35:45;39.50;;;5.15;;
48859;SDS011;34679;51.436;-2.518;2023-11-19T06:38:11;41.05;;;5.53;;
48859;SDS011;34679;51.436;-2.518;2023-11-19T06:40:36;41.25;;;5.18;;
48859;SDS011;34679;51.436;-2.518;2023-11-19T06:43:02;48.25;;;5.95;;
48859;SDS011;34679;51.436;-2.518;2023-11-19T06:45:28;38.75;;;4.72;;
48859;SDS011;34679;51.436;-2.518;2023-11-19T06:47:54;32.15;;;4.18;;
48859;SDS011;34679;51.436;-2.518;2023-11-19T06:50:20;41.67;;;5.47;;
48859;SDS011;34679;51.436;-2.518;2023-11-19T06:52:46;36.05;;;4.60;;
48859;SDS011;34679;51.436;-2.518;2023-11-19T06:55:12;31.85;;;4.18;;
48859;SDS011;34679;51.436;-2.518;2023-11-19T06:57:38;36.60;;;4.05;;
48859;SDS011;34679;51.436;-2.518;2023-11-19T07:00:04;34.95;;;6.35;;
48859;SDS011;34679;51.436;-2.518;2023-11-19T07:02:31;22.23;;;4.10;;
48859;SDS011;34679;51.436;-2.518;2023-11-19T07:04:57;44.45;;;6.72;;
48859;SDS011;34679;51.436;-2.518;2023-11-19T07:07:23;30.00;;;5.22;;
48859;SDS011;34679;51.436;-2.518;2023-11-19T07:09:48;30.15;;;4.57;;
48859;SDS011;34679;51.436;-2.518;2023-11-19T07:12:15;27.95;;;4.15;;
48859;SDS011;34679;51.436;-2.518;2023-11-19T07:14:40;27.67;;;4.70;;
48859;SDS011;34679;51.436;-2.518;2023-11-19T07:17:07;26.45;;;5.00;;
48859;SDS011;34679;51.436;-2.518;2023-11-19T07:19:33;31.25;;;4.43;;
48859;SDS011;34679;51.436;-2.518;2023-11-19T07:22:01;32.47;;;5.85;;
48859;SDS011;34679;51.436;-2.518;2023-11-19T07:24:27;26.02;;;4.38;;
48859;SDS011;34679;51.436;-2.518;2023-11-19T07:26:53;21.92;;;3.80;;
48859;SDS011;34679;51.436;-2.518;2023-11-19T07:29:19;23.95;;;3.85;;
48859;SDS011;34679;51.436;-2.518;2023-11-19T07:31:46;29.83;;;4.03;;
48859;SDS011;34679;51.436;-2.518;2023-11-19T07:34:16;28.88;;;4.25;;
48859;SDS011;34679;51.436;-2.518;2023-11-19T07:36:41;24.42;;;3.83;;
48859;SDS011;34679;51.436;-2.518;2023-11-19T07:39:07;32.58;;;3.65;;
48859;SDS011;34679;51.436;-2.518;2023-11-19T07:41:33;25.52;;;3.15;;
48859;SDS011;34679;51.436;-2.518;2023-11-19T07:43:59;32.42;;;4.40;;
48859;SDS011;34679;51.436;-2.518;2023-11-19T07:46:25;30.25;;;4.45;;
48859;SDS011;34679;51.436;-2.518;2023-11-19T07:48:52;34.05;;;4.88;;
48859;SDS011;34679;51.436;-2.518;2023-11-19T07:51:18;33.03;;;4.40;;
48859;SDS011;34679;51.436;-2.518;2023-11-19T07:53:43;37.22;;;4.85;;
48859;SDS011;34679;51.436;-2.518;2023-11-19T07:56:09;39.33;;;5.82;;
48859;SDS011;34679;51.436;-2.518;2023-11-19T07:58:35;34.00;;;5.43;;
48859;SDS011;34679;51.436;-2.518;2023-11-19T08:01:04;30.15;;;4.85;;
48859;SDS011;34679;51.436;-2.518;2023-11-19T08:03:30;31.35;;;4.80;;
48859;SDS011;34679;51.436;-2.518;2023-11-19T08:05:57;33.05;;;4.75;;
48859;SDS011;34679;51.436;-2.518;2023-11-19T08:08:22;28.83;;;5.57;;
48859;SDS011;34679;51.436;-2.518;2023-11-19T08:10:48;32.15;;;5.05;;
48859;SDS011;34679;51.436;-2.518;2023-11-19T08:13:14;41.53;;;6.20;;
48859;SDS011;34679;51.436;-2.518;2023-11-19T08:15:40;32.20;;;4.30;;
48859;SDS011;34679;51.436;-2.518;2023-11-19T08:18:06;31.80;;;4.35;;
48859;SDS011;34679;51.436;-2.518;2023-11-19T08:20:32;36.45;;;4.40;;
48859;SDS011;34679;51.436;-2.518;2023-11-19T08:22:58;31.35;;;4.38;;
48859;SDS011;34679;51.436;-2.518;2023-11-19T08:25:24;31.73;;;4.35;;
48859;SDS011;34679;51.436;-2.518;2023-11-19T08:27:50;35.90;;;6.43;;
48859;SDS011;34679;51.436;-2.518;2023-11-19T08:30:15;39.53;;;5.13;;
48859;SDS011;34679;51.436;-2.518;2023-11-19T08:32:41;33.05;;;5.00;;
48859;SDS011;34679;51.436;-2.518;2023-11-19T08:35:07;34.05;;;4.32;;
48859;SDS011;34679;51.436;-2.518;2023-11-19T08:37:33;30.85;;;4.50;;
48859;SDS011;34679;51.436;-2.518;2023-11-19T08:40:01;39.10;;;4.82;;
48859;SDS011;34679;51.436;-2.518;2023-11-19T08:42:29;38.78;;;6.05;;
48859;SDS011;34679;51.436;-2.518;2023-11-19T08:44:55;38.28;;;5.47;;
48859;SDS011;34679;51.436;-2.518;2023-11-19T08:47:20;39.15;;;6.28;;
48859;SDS011;34679;51.436;-2.518;2023-11-19T08:49:47;43.67;;;5.43;;
48859;SDS011;34679;51.436;-2.518;2023-11-19T08:52:16;31.77;;;5.03;;
48859;SDS011;34679;51.436;-2.518;2023-11-19T08:54:42;37.33;;;4.70;;
48859;SDS011;34679;51.436;-2.518;2023-11-19T08:57:08;35.97;;;5.55;;
48859;SDS011;34679;51.436;-2.518;2023-11-19T08:59:34;39.53;;;7.00;;
48859;SDS011;34679;51.436;-2.518;2023-11-19T09:02:00;43.22;;;6.18;;
48859;SDS011;34679;51.436;-2.518;2023-11-19T09:04:26;32.13;;;4.78;;
48859;SDS011;34679;51.436;-2.518;2023-11-19T09:06:52;35.80;;;4.50;;
48859;SDS011;34679;51.436;-2.518;2023-11-19T09:09:18;31.98;;;5.55;;
48859;SDS011;34679;51.436;-2.518;2023-11-19T09:11:44;33.80;;;4.85;;
48859;SDS011;34679;51.436;-2.518;2023-11-19T09:14:09;30.75;;;5.00;;
48859;SDS011;34679;51.436;-2.518;2023-11-19T09:16:35;24.55;;;3.80;;
48859;SDS011;34679;51.436;-2.518;2023-11-19T09:19:01;31.58;;;3.95;;
48859;SDS011;34679;51.436;-2.518;2023-11-19T09:21:27;36.78;;;6.85;;
48859;SDS011;34679;51.436;-2.518;2023-11-19T09:23:54;24.30;;;4.20;;
48859;SDS011;34679;51.436;-2.518;2023-11-19T09:26:20;32.88;;;5.32;;
48859;SDS011;34679;51.436;-2.518;2023-11-19T09:28:46;29.42;;;4.13;;
48859;SDS011;34679;51.436;-2.518;2023-11-19T09:31:15;33.17;;;5.53;;
48859;SDS011;34679;51.436;-2.518;2023-11-19T09:33:42;26.05;;;3.88;;
48859;SDS011;34679;51.436;-2.518;2023-11-19T09:36:08;30.92;;;4.72;;
48859;SDS011;34679;51.436;-2.518;2023-11-19T09:38:35;21.88;;;4.03;;
48859;SDS011;34679;51.436;-2.518;2023-11-19T09:41:04;25.85;;;5.35;;
48859;SDS011;34679;51.436;-2.518;2023-11-19T09:43:33;27.55;;;4.30;;
48859;SDS011;34679;51.436;-2.518;2023-11-19T09:46:01;39.83;;;4.90;;
48859;SDS011;34679;51.436;-2.518;2023-11-19T09:48:32;29.20;;;3.70;;
48859;SDS011;34679;51.436;-2.518;2023-11-19T09:50:58;19.98;;;4.05;;
48859;SDS011;34679;51.436;-2.518;2023-11-19T09:53:25;16.48;;;3.20;;
48859;SDS011;34679;51.436;-2.518;2023-11-19T09:55:51;25.27;;;4.47;;
48859;SDS011;34679;51.436;-2.518;2023-11-19T09:58:18;21.02;;;3.40;;
48859;SDS011;34679;51.436;-2.518;2023-11-19T10:00:43;21.25;;;3.60;;
48859;SDS011;34679;51.436;-2.518;2023-11-19T10:03:10;18.08;;;3.72;;
48859;SDS011;34679;51.436;-2.518;2023-11-19T10:05:39;26.38;;;4.82;;
48859;SDS011;34679;51.436;-2.518;2023-11-19T10:08:05;17.13;;;3.00;;
48859;SDS011;34679;51.436;-2.518;2023-11-19T10:10:33;25.38;;;5.05;;
48859;SDS011;34679;51.436;-2.518;2023-11-19T10:12:59;26.88;;;3.67;;
48859;SDS011;34679;51.436;-2.518;2023-11-19T10:15:26;17.58;;;3.22;;
48859;SDS011;34679;51.436;-2.518;2023-11-19T10:17:52;21.08;;;3.88;;
48859;SDS011;34679;51.436;-2.518;2023-11-19T10:20:23;15.55;;;3.83;;
48859;SDS011;34679;51.436;-2.518;2023-11-19T10:22:52;14.10;;;2.58;;
48859;SDS011;34679;51.436;-2.518;2023-11-19T10:27:49;18.60;;;3.40;;
48859;SDS011;34679;51.436;-2.518;2023-11-19T10:30:22;13.70;;;2.38;;
48859;SDS011;34679;51.436;-2.518;2023-11-19T10:33:05;21.85;;;2.70;;
48859;SDS011;34679;51.436;-2.518;2023-11-19T10:35:36;12.93;;;2.28;;
48859;SDS011;34679;51.436;-2.518;2023-11-19T10:38:17;16.73;;;3.03;;
48859;SDS011;34679;51.436;-2.518;2023-11-19T10:40:42;18.65;;;2.60;;
48859;SDS011;34679;51.436;-2.518;2023-11-19T10:43:08;19.20;;;4.03;;
48859;SDS011;34679;51.436;-2.518;2023-11-19T10:45:35;14.63;;;2.90;;
48859;SDS011;34679;51.436;-2.518;2023-11-19T10:48:01;19.40;;;3.15;;
48859;SDS011;34679;51.436;-2.518;2023-11-19T10:50:31;19.73;;;4.07;;
48859;SDS011;34679;51.436;-2.518;2023-11-19T10:53:01;16.75;;;2.65;;
48859;SDS011;34679;51.436;-2.518;2023-11-19T10:55:29;15.68;;;2.30;;
48859;SDS011;34679;51.436;-2.518;2023-11-19T10:58:03;14.32;;;2.60;;
48859;SDS011;34679;51.436;-2.518;2023-11-19T11:00:38;8.35;;;1.90;;
48859;SDS011;34679;51.436;-2.518;2023-11-19T11:03:10;10.95;;;1.80;;
48859;SDS011;34679;51.436;-2.518;2023-11-19T11:05:49;15.88;;;2.10;;
48859;SDS011;34679;51.436;-2.518;2023-11-19T11:08:16;12.27;;;3.75;;
48859;SDS011;34679;51.436;-2.518;2023-11-19T11:10:44;14.10;;;2.28;;
48859;SDS011;34679;51.436;-2.518;2023-11-19T11:13:22;9.63;;;2.08;;
48859;SDS011;34679;51.436;-2.518;2023-11-19T11:18:21;14.80;;;3.05;;
48859;SDS011;34679;51.436;-2.518;2023-11-19T11:20:48;17.20;;;2.20;;
48859;SDS011;34679;51.436;-2.518;2023-11-19T11:28:51;8.95;;;2.17;;
48859;SDS011;34679;51.436;-2.518;2023-11-19T11:31:34;13.68;;;2.78;;
48859;SDS011;34679;51.436;-2.518;2023-11-19T11:34:25;18.83;;;2.30;;
48859;SDS011;34679;51.436;-2.518;2023-11-19T11:39:35;13.77;;;2.03;;
48859;SDS011;34679;51.436;-2.518;2023-11-19T11:44:59;7.63;;;1.77;;
48859;SDS011;34679;51.436;-2.518;2023-11-19T11:47:26;10.55;;;1.70;;
48859;SDS011;34679;51.436;-2.518;2023-11-19T11:50:15;11.98;;;1.40;;
48859;SDS011;34679;51.436;-2.518;2023-11-19T11:58:17;10.10;;;2.40;;
48859;SDS011;34679;51.436;-2.518;2023-11-19T12:00:43;4.38;;;1.80;;
48859;SDS011;34679;51.436;-2.518;2023-11-19T12:03:16;7.55;;;1.30;;
48859;SDS011;34679;51.436;-2.518;2023-11-19T12:05:46;11.90;;;1.88;;
48859;SDS011;34679;51.436;-2.518;2023-11-19T12:08:13;4.47;;;1.15;;
48859;SDS011;34679;51.436;-2.518;2023-11-19T12:13:17;6.20;;;1.17;;
48859;SDS011;34679;51.436;-2.518;2023-11-19T12:18:28;6.13;;;1.00;;
48859;SDS011;34679;51.436;-2.518;2023-11-19T12:20:58;5.90;;;1.08;;
48859;SDS011;34679;51.436;-2.518;2023-11-19T12:23:30;4.82;;;0.90;;
48859;SDS011;34679;51.436;-2.518;2023-11-19T12:25:57;7.45;;;0.90;;
48859;SDS011;34679;51.436;-2.518;2023-11-19T12:28:23;4.47;;;1.15;;
48859;SDS011;34679;51.436;-2.518;2023-11-19T12:30:51;5.60;;;1.05;;
48859;SDS011;34679;51.436;-2.518;2023-11-19T12:33:18;8.27;;;1.88;;
48859;SDS011;34679;51.436;-2.518;2023-11-19T12:35:47;7.13;;;0.90;;
48859;SDS011;34679;51.436;-2.518;2023-11-19T12:38:20;4.50;;;1.10;;
48859;SDS011;34679;51.436;-2.518;2023-11-19T12:40:46;8.43;;;1.88;;
48859;SDS011;34679;51.436;-2.518;2023-11-19T12:43:21;10.98;;;1.73;;
48859;SDS011;34679;51.436;-2.518;2023-11-19T12:45:48;9.55;;;1.90;;
48859;SDS011;34679;51.436;-2.518;2023-11-19T12:48:14;14.45;;;2.03;;
48859;SDS011;34679;51.436;-2.518;2023-11-19T12:50:55;10.20;;;1.70;;
48859;SDS011;34679;51.436;-2.518;2023-11-19T12:53:23;14.38;;;3.65;;
48859;SDS011;34679;51.436;-2.518;2023-11-19T12:55:50;14.52;;;2.50;;
48859;SDS011;34679;51.436;-2.518;2023-11-19T12:58:32;14.25;;;2.05;;
48859;SDS011;34679;51.436;-2.518;2023-11-19T13:00:59;11.30;;;2.30;;
48859;SDS011;34679;51.436;-2.518;2023-11-19T13:03:29;12.43;;;2.25;;
48859;SDS011;34679;51.436;-2.518;2023-11-19T13:06:06;11.02;;;2.70;;
48859;SDS011;34679;51.436;-2.518;2023-11-19T13:08:37;13.93;;;3.20;;
48859;SDS011;34679;51.436;-2.518;2023-11-19T13:11:08;16.23;;;2.08;;
48859;SDS011;34679;51.436;-2.518;2023-11-19T13:13:56;21.88;;;3.25;;
48859;SDS011;34679;51.436;-2.518;2023-11-19T13:16:24;19.38;;;2.75;;
48859;SDS011;34679;51.436;-2.518;2023-11-19T13:18:51;18.40;;;2.92;;
48859;SDS011;34679;51.436;-2.518;2023-11-19T13:21:17;20.05;;;3.08;;
48859;SDS011;34679;51.436;-2.518;2023-11-19T13:23:43;24.60;;;3.05;;
48859;SDS011;34679;51.436;-2.518;2023-11-19T13:26:09;24.55;;;3.35;;
48859;SDS011;34679;51.436;-2.518;2023-11-19T13:28:35;31.48;;;4.28;;
48859;SDS011;34679;51.436;-2.518;2023-11-19T13:31:01;23.73;;;3.08;;
48859;SDS011;34679;51.436;-2.518;2023-11-19T13:33:28;23.33;;;3.88;;
48859;SDS011;34679;51.436;-2.518;2023-11-19T13:35:54;25.88;;;3.33;;
48859;SDS011;34679;51.436;-2.518;2023-11-19T13:38:20;21.42;;;4.53;;
48859;SDS011;34679;51.436;-2.518;2023-11-19T13:40:48;18.45;;;3.60;;
48859;SDS011;34679;51.436;-2.518;2023-11-19T13:43:13;21.13;;;4.15;;
48859;SDS011;34679;51.436;-2.518;2023-11-19T13:45:40;15.75;;;3.40;;
48859;SDS011;34679;51.436;-2.518;2023-11-19T13:48:05;18.98;;;3.47;;
48859;SDS011;34679;51.436;-2.518;2023-11-19T13:50:31;20.65;;;2.55;;
48859;SDS011;34679;51.436;-2.518;2023-11-19T13:52:59;23.77;;;4.15;;
48859;SDS011;34679;51.436;-2.518;2023-11-19T13:55:25;21.30;;;3.75;;
48859;SDS011;34679;51.436;-2.518;2023-11-19T13:57:51;28.45;;;4.97;;
48859;SDS011;34679;51.436;-2.518;2023-11-19T14:00:16;33.63;;;3.65;;
48859;SDS011;34679;51.436;-2.518;2023-11-19T14:02:43;22.58;;;3.60;;
48859;SDS011;34679;51.436;-2.518;2023-11-19T14:05:10;32.00;;;4.63;;
48859;SDS011;34679;51.436;-2.518;2023-11-19T14:07:36;25.15;;;3.78;;
48859;SDS011;34679;51.436;-2.518;2023-11-19T14:10:03;16.20;;;3.45;;
48859;SDS011;34679;51.436;-2.518;2023-11-19T14:12:30;23.95;;;4.05;;
48859;SDS011;34679;51.436;-2.518;2023-11-19T14:14:56;28.10;;;3.78;;
48859;SDS011;34679;51.436;-2.518;2023-11-19T14:17:21;18.98;;;3.70;;
48859;SDS011;34679;51.436;-2.518;2023-11-19T14:19:47;18.88;;;3.17;;
48859;SDS011;34679;51.436;-2.518;2023-11-19T14:22:13;15.13;;;2.92;;
48859;SDS011;34679;51.436;-2.518;2023-11-19T14:24:38;23.33;;;3.78;;
48859;SDS011;34679;51.436;-2.518;2023-11-19T14:27:06;24.65;;;5.30;;
48859;SDS011;34679;51.436;-2.518;2023-11-19T14:29:32;30.30;;;4.50;;
48859;SDS011;34679;51.436;-2.518;2023-11-19T14:31:59;36.55;;;5.53;;
48859;SDS011;34679;51.436;-2.518;2023-11-19T14:34:26;23.05;;;4.13;;
48859;SDS011;34679;51.436;-2.518;2023-11-19T14:36:52;28.27;;;4.43;;
48859;SDS011;34679;51.436;-2.518;2023-11-19T14:39:18;24.55;;;3.50;;
48859;SDS011;34679;51.436;-2.518;2023-11-19T14:41:44;28.20;;;3.53;;
48859;SDS011;34679;51.436;-2.518;2023-11-19T14:44:10;22.77;;;5.47;;
48859;SDS011;34679;51.436;-2.518;2023-11-19T14:46:36;36.20;;;5.40;;
48859;SDS011;34679;51.436;-2.518;2023-11-19T14:49:01;27.13;;;5.22;;
48859;SDS011;34679;51.436;-2.518;2023-11-19T14:51:29;31.35;;;4.70;;
48859;SDS011;34679;51.436;-2.518;2023-11-19T14:53:55;25.13;;;3.67;;